Time;durP1;ratioP1;P1;durP2;ratioP2;P2;SDS_P1;SDS_P2;PMS_P1;PMS_P2;Temp;Humidity;BMP_temperature;BMP_pressure;BME280_temperature;BME280_humidity;BME280_pressure;Samples;Min_cycle;Max_cycle;Signal;HPM_P1;HPM_P2
2023/03/27 00:02:17;;;;;;;17.08;2.10;;;11.00;78.60;;;;;;7382103;19;20026;-78
2023/03/27 00:04:46;;;;;;;18.48;2.35;;;11.00;78.30;;;;;;7381351;19;20251;-78
2023/03/27 00:07:18;;;;;;;12.23;1.92;;;10.90;78.00;;;;;;7382209;19;20003;-79
2023/03/27 00:09:47;;;;;;;11.40;2.05;;;11.00;78.30;;;;;;7386911;19;20010;-78
2023/03/27 00:12:16;;;;;;;12.73;2.10;;;10.90;78.00;;;;;;7415686;19;20047;-78
2023/03/27 00:14:45;;;;;;;3.63;1.50;;;11.00;78.60;;;;;;7416525;19;20018;-78
2023/03/27 00:17:14;;;;;;;12.50;1.95;;;11.00;77.60;;;;;;7397012;19;20078;-80
2023/03/27 00:19:42;;;;;;;13.45;2.03;;;11.00;77.70;;;;;;7393345;19;20014;-79
2023/03/27 00:22:11;;;;;;;12.68;1.77;;;11.10;77.20;;;;;;7390620;19;20002;-79
2023/03/27 00:24:43;;;;;;;13.52;2.10;;;11.10;77.70;;;;;;7389241;19;20014;-78
2023/03/27 00:27:11;;;;;;;;;;;11.10;76.80;;;;;;7411954;19;20015;-78
2023/03/27 00:29:40;;;;;;;7.03;2.28;;;11.00;76.20;;;;;;7390728;19;19930;-79
2023/03/27 00:32:09;;;;;;;12.15;2.03;;;11.00;76.80;;;;;;7388266;19;20349;-79
2023/03/27 00:34:38;;;;;;;18.02;2.10;;;11.00;78.00;;;;;;7388115;19;20018;-79
2023/03/27 00:37:06;;;;;;;12.57;2.25;;;10.90;76.60;;;;;;7387833;19;20102;-78
2023/03/27 00:39:35;;;;;;;16.33;2.67;;;11.10;77.20;;;;;;7383386;19;20030;-77
2023/03/27 00:42:07;;;;;;;16.92;2.55;;;10.90;77.70;;;;;;7409302;19;20014;-79
2023/03/27 00:44:36;;;;;;;9.90;1.77;;;11.10;77.80;;;;;;7387317;19;20011;-77
2023/03/27 00:47:07;;;;;;;8.98;1.73;;;11.00;77.50;;;;;;7384429;19;20007;-78
2023/03/27 00:49:37;;;;;;;;;;;11.10;76.70;;;;;;7386556;19;20007;-78
2023/03/27 00:52:08;;;;;;;11.38;2.38;;;11.00;77.20;;;;;;7385370;19;19966;-78
2023/03/27 00:54:40;;;;;;;8.45;2.00;;;10.60;77.50;;;;;;7388854;19;20215;-78
2023/03/27 00:57:17;;;;;;;11.38;1.70;;;10.80;77.90;;;;;;7406127;19;20011;-77
2023/03/27 00:59:48;;;;;;;7.00;1.63;;;10.70;77.70;;;;;;7383492;19;20011;-78
2023/03/27 01:02:18;;;;;;;11.88;2.10;;;10.70;78.00;;;;;;7387537;19;20006;-78
2023/03/27 01:04:49;;;;;;;11.75;1.83;;;10.90;78.00;;;;;;7387579;19;20023;-78
2023/03/27 01:07:18;;;;;;;13.23;1.60;;;11.00;77.50;;;;;;7389599;19;20007;-78
2023/03/27 01:09:47;;;;;;;9.50;1.92;;;11.10;77.40;;;;;;7388997;19;20025;-78
2023/03/27 01:12:28;;;;;;;8.75;1.77;;;11.10;77.50;;;;;;7407680;19;20006;-78
2023/03/27 01:15:14;;;;;;;22.17;2.57;;;11.30;76.60;;;;;;7408465;19;20370;-78
2023/03/27 01:18:05;;;;;;;15.40;2.20;;;11.10;76.50;;;;;;7388255;19;20012;-78
2023/03/27 01:21:05;;;;;;;11.38;2.10;;;11.30;77.30;;;;;;7387192;19;20007;-78
2023/03/27 01:24:07;;;;;;;14.07;1.88;;;11.50;76.60;;;;;;7389975;19;20007;-79
2023/03/27 01:27:06;;;;;;;7.38;2.10;;;11.40;75.80;;;;;;7391362;19;20010;-78
2023/03/27 01:29:51;;;;;;;12.13;2.00;;;11.50;76.80;;;;;;7389262;19;20042;-78
2023/03/27 01:32:51;;;;;;;14.77;2.20;;;11.40;76.50;;;;;;7385713;19;20034;-78
2023/03/27 01:35:44;;;;;;;22.80;2.55;;;11.60;76.70;;;;;;7387818;19;20007;-78
2023/03/27 01:38:38;;;;;;;13.48;1.90;;;11.30;76.80;;;;;;7388610;19;20007;-78
2023/03/27 01:41:15;;;;;;;12.55;2.10;;;11.40;77.10;;;;;;7387335;19;20007;-78
2023/03/27 01:43:48;;;;;;;16.05;1.90;;;11.50;76.80;;;;;;7387947;19;20010;-78
2023/03/27 01:46:23;;;;;;;15.38;1.80;;;11.40;76.90;;;;;;7386406;19;19999;-79
2023/03/27 01:48:57;;;;;;;21.77;2.53;;;11.50;77.10;;;;;;7388018;19;20007;-77
2023/03/27 01:51:33;;;;;;;11.38;1.88;;;11.50;77.50;;;;;;7386767;19;20011;-78
2023/03/27 01:54:09;;;;;;;15.70;2.38;;;11.30;77.30;;;;;;7409010;19;20115;-78
2023/03/27 01:56:50;;;;;;;19.33;2.38;;;11.20;77.90;;;;;;7390915;19;20006;-79
2023/03/27 01:59:25;;;;;;;10.27;2.15;;;11.30;78.10;;;;;;7387550;19;20007;-79
2023/03/27 02:02:00;;;;;;;14.52;1.83;;;11.10;78.30;;;;;;7386853;19;20227;-78
2023/03/27 02:04:35;;;;;;;12.52;2.22;;;10.90;78.30;;;;;;7385609;19;20010;-78
2023/03/27 02:07:07;;;;;;;17.30;2.00;;;10.80;78.90;;;;;;7386911;19;20003;-78
2023/03/27 02:09:40;;;;;;;10.35;1.83;;;10.80;79.50;;;;;;7387096;19;20346;-79
2023/03/27 02:12:15;;;;;;;19.77;2.45;;;10.60;79.70;;;;;;7407728;19;20011;-79
2023/03/27 02:14:51;;;;;;;14.77;2.13;;;10.70;80.00;;;;;;7388718;19;20016;-79
2023/03/27 02:17:24;;;;;;;15.00;2.28;;;10.60;80.40;;;;;;7389422;19;20028;-78
2023/03/27 02:19:58;;;;;;;12.05;2.17;;;10.80;80.10;;;;;;7389353;19;20356;-79
2023/03/27 02:22:28;;;;;;;16.00;3.40;;;10.90;80.00;;;;;;7387830;19;20026;-79
2023/03/27 02:24:58;;;;;;;12.75;2.30;;;10.90;80.10;;;;;;7385907;19;20030;-78
2023/03/27 02:27:38;;;;;;;22.77;2.50;;;10.90;80.00;;;;;;7383939;19;20013;-78
2023/03/27 02:30:15;;;;;;;11.75;2.10;;;10.70;80.50;;;;;;7408950;19;20015;-79
2023/03/27 02:32:55;;;;;;;18.27;1.98;;;10.60;81.00;;;;;;7382374;19;20006;-79
2023/03/27 02:35:35;;;;;;;14.05;2.38;;;10.70;81.30;;;;;;7386560;19;20007;-79
2023/03/27 02:38:14;;;;;;;9.57;2.22;;;10.70;81.20;;;;;;7387776;19;20007;-78
2023/03/27 02:40:49;;;;;;;14.15;2.65;;;10.90;81.30;;;;;;7386382;19;20094;-78
2023/03/27 02:43:25;;;;;;;7.15;1.67;;;10.90;80.80;;;;;;7387755;19;20006;-79
2023/03/27 02:45:59;;;;;;;8.80;1.73;;;11.00;80.50;;;;;;7389082;19;20007;-79
2023/03/27 02:48:34;;;;;;;9.95;2.00;;;11.00;80.70;;;;;;7387322;19;20015;-80
2023/03/27 02:51:08;;;;;;;18.67;2.95;;;11.00;80.80;;;;;;7406741;19;20020;-78
2023/03/27 02:53:42;;;;;;;10.82;2.10;;;11.00;80.40;;;;;;7383311;19;20003;-79
2023/03/27 02:56:13;;;;;;;10.45;2.17;;;11.10;80.80;;;;;;7383225;19;20007;-79
2023/03/27 02:58:50;;;;;;;9.90;2.15;;;11.20;81.10;;;;;;7382940;19;20070;-80
2023/03/27 03:01:21;;;;;;;14.57;2.38;;;10.90;80.50;;;;;;7385569;19;20021;-79
2023/03/27 03:03:56;;;;;;;13.75;2.55;;;10.90;81.50;;;;;;7386594;19;20017;-80
2023/03/27 03:06:28;;;;;;;9.15;2.10;;;10.90;81.40;;;;;;7386974;19;20002;-79
2023/03/27 03:09:01;;;;;;;14.80;2.17;;;10.90;81.20;;;;;;7412102;19;19999;-78
2023/03/27 03:11:33;;;;;;;10.88;2.13;;;11.00;81.10;;;;;;7389023;19;20010;-80
2023/03/27 03:14:05;;;;;;;7.57;2.10;;;11.10;80.70;;;;;;7385030;19;20007;-78
2023/03/27 03:16:34;;;;;;;13.00;2.00;;;11.10;80.60;;;;;;7391140;19;20026;-78
2023/03/27 03:19:02;;;;;;;12.77;2.47;;;11.00;81.00;;;;;;7385290;19;20396;-79
2023/03/27 03:21:31;;;;;;;16.20;2.10;;;11.10;81.00;;;;;;7383440;19;20346;-79
2023/03/27 03:24:00;;;;;;;15.60;1.90;;;11.00;80.70;;;;;;7409390;19;20010;-78
2023/03/27 03:26:29;;;;;;;8.70;1.67;;;11.00;80.20;;;;;;7389731;19;20292;-79
2023/03/27 03:29:00;;;;;;;11.63;1.92;;;11.10;80.70;;;;;;7391989;19;20003;-79
2023/03/27 03:31:43;;;;;;;10.40;1.60;;;11.20;80.90;;;;;;7393356;19;20365;-78
2023/03/27 03:34:12;;;;;;;10.32;1.90;;;11.30;81.10;;;;;;7389015;19;20069;-79
2023/03/27 03:36:41;;;;;;;18.25;2.17;;;11.10;80.20;;;;;;7383988;19;20042;-78
2023/03/27 03:39:13;;;;;;;11.93;1.90;;;11.00;80.20;;;;;;7403686;19;20358;-80
2023/03/27 03:41:42;;;;;;;8.20;1.73;;;11.10;81.10;;;;;;7383725;19;20561;-80
2023/03/27 03:44:11;;;;;;;9.35;1.98;;;11.20;80.70;;;;;;7385122;19;20009;-80
2023/03/27 03:46:42;;;;;;;12.13;1.70;;;11.30;80.30;;;;;;7387498;19;20014;-79
2023/03/27 03:49:11;;;;;;;10.38;1.95;;;11.30;80.30;;;;;;7385721;19;20011;-79
2023/03/27 03:51:40;;;;;;;9.90;1.83;;;11.30;79.40;;;;;;7384647;19;20408;-78
2023/03/27 03:54:09;;;;;;;9.50;1.55;;;11.30;79.60;;;;;;7403017;19;20039;-78
2023/03/27 03:56:40;;;;;;;8.10;1.73;;;11.30;79.90;;;;;;7381995;19;20003;-79
2023/03/27 03:59:09;;;;;;;13.10;1.75;;;11.20;79.80;;;;;;7383899;19;20023;-79
2023/03/27 04:01:39;;;;;;;13.48;2.05;;;11.20;79.90;;;;;;7383711;19;20023;-80
2023/03/27 04:04:11;;;;;;;15.70;2.03;;;11.10;79.70;;;;;;7381974;19;20448;-79
2023/03/27 04:06:42;;;;;;;;;;;11.20;79.90;;;;;;7382286;19;20011;-79
2023/03/27 04:09:11;;;;;;;7.53;1.15;;;11.20;80.00;;;;;;7402207;19;20223;-81
2023/03/27 04:11:42;;;;;;;14.05;2.30;;;11.00;80.00;;;;;;7383165;19;20020;-79
2023/03/27 04:14:10;;;;;;;9.82;1.90;;;10.80;80.80;;;;;;7384915;19;20002;-79
2023/03/27 04:16:39;;;;;;;8.30;1.67;;;10.90;80.80;;;;;;7388451;19;20034;-79
2023/03/27 04:19:11;;;;;;;7.35;1.63;;;10.90;81.10;;;;;;7381803;19;20082;-78
2023/03/27 04:21:41;;;;;;;9.27;1.73;;;10.70;81.00;;;;;;7381178;19;20074;-80
2023/03/27 04:24:12;;;;;;;13.48;2.10;;;10.80;81.50;;;;;;7403308;19;20018;-79
2023/03/27 04:26:42;;;;;;;6.15;1.48;;;10.80;81.20;;;;;;7384016;19;20066;-78
2023/03/27 04:29:11;;;;;;;16.05;1.95;;;10.90;81.50;;;;;;7382672;19;20405;-79
2023/03/27 04:31:40;;;;;;;12.82;1.88;;;10.90;81.10;;;;;;7382129;19;20236;-78
2023/03/27 04:34:11;;;;;;;5.72;2.25;;;10.90;81.00;;;;;;7380644;19;20347;-79
2023/03/27 04:36:41;;;;;;;14.63;1.92;;;10.90;80.90;;;;;;7378848;19;20007;-79
2023/03/27 04:39:10;;;;;;;21.33;2.42;;;10.90;81.10;;;;;;7403632;19;20036;-78
2023/03/27 04:41:39;;;;;;;12.45;1.85;;;10.90;81.10;;;;;;7383345;19;20009;-79
2023/03/27 04:44:08;;;;;;;13.63;2.10;;;10.70;80.60;;;;;;7382650;19;19999;-78
2023/03/27 04:46:37;;;;;;;13.32;2.10;;;10.60;81.30;;;;;;7380928;19;20003;-78
2023/03/27 04:49:06;;;;;;;15.00;1.80;;;10.70;81.40;;;;;;7382272;19;20019;-79
2023/03/27 04:51:39;;;;;;;13.65;1.88;;;10.60;81.10;;;;;;7383215;19;20014;-79
2023/03/27 04:54:09;;;;;;;9.82;2.08;;;10.50;81.40;;;;;;7405816;19;20043;-79
2023/03/27 04:56:39;;;;;;;13.88;1.92;;;10.40;81.80;;;;;;7387977;19;20010;-79
2023/03/27 04:59:09;;;;;;;13.98;1.98;;;10.50;82.00;;;;;;7390805;19;20014;-78
2023/03/27 05:01:38;;;;;;;9.50;2.00;;;10.50;81.70;;;;;;7394243;19;20010;-78
2023/03/27 05:04:07;;;;;;;15.68;3.50;;;10.70;81.40;;;;;;7392248;19;20006;-78
2023/03/27 05:06:39;;;;;;;10.32;1.85;;;10.40;81.50;;;;;;7390937;19;20024;-78
2023/03/27 05:09:07;;;;;;;;;;;10.60;81.60;;;;;;7415554;19;20018;-78
2023/03/27 05:11:36;;;;;;;17.95;2.20;;;10.60;81.00;;;;;;7390351;19;19914;-78
2023/03/27 05:14:05;;;;;;;11.02;1.60;;;10.70;81.30;;;;;;7389895;19;20006;-78
2023/03/27 05:16:35;;;;;;;8.25;1.80;;;10.80;81.00;;;;;;7389377;19;20051;-79
2023/03/27 05:19:04;;;;;;;17.52;2.30;;;10.80;80.20;;;;;;7386529;19;20120;-77
2023/03/27 05:21:33;;;;;;;13.88;1.80;;;10.80;80.60;;;;;;7385754;19;20015;-78
2023/03/27 05:24:05;;;;;;;10.45;1.75;;;10.90;80.80;;;;;;7407147;19;20018;-79
2023/03/27 05:26:33;;;;;;;;;;;10.80;80.50;;;;;;7387436;19;20038;-79
2023/03/27 05:29:04;;;;;;;5.03;1.38;;;11.00;81.40;;;;;;7386965;19;19934;-79
2023/03/27 05:31:36;;;;;;;15.95;2.40;;;11.00;79.80;;;;;;7387381;19;20365;-79
2023/03/27 05:34:05;;;;;;;7.72;1.80;;;11.10;80.00;;;;;;7387794;19;20122;-79
2023/03/27 05:36:34;;;;;;;16.05;1.88;;;11.10;79.70;;;;;;7388553;19;20073;-79
2023/03/27 05:39:06;;;;;;;9.93;1.77;;;11.10;79.20;;;;;;7411298;19;20021;-79
2023/03/27 05:41:35;;;;;;;9.13;1.73;;;11.00;79.40;;;;;;7397494;19;20003;-79
2023/03/27 05:44:04;;;;;;;12.63;1.80;;;11.10;79.60;;;;;;7404555;19;20027;-79
2023/03/27 05:46:38;;;;;;;9.45;1.67;;;11.10;79.60;;;;;;7406127;19;20010;-79
2023/03/27 05:49:07;;;;;;;5.82;1.60;;;11.00;79.70;;;;;;7407010;19;20006;-79
2023/03/27 05:51:36;;;;;;;11.13;1.63;;;11.00;79.60;;;;;;7405321;19;20020;-79
2023/03/27 05:54:07;;;;;;;10.00;1.50;;;11.10;80.00;;;;;;7426582;19;20003;-78
2023/03/27 05:56:36;;;;;;;13.85;2.15;;;11.00;80.10;;;;;;7406223;19;20007;-78
2023/03/27 05:59:05;;;;;;;5.32;1.40;;;11.00;80.10;;;;;;7403584;19;20014;-79
2023/03/27 06:01:38;;;;;;;8.43;1.73;;;11.00;80.10;;;;;;7400324;19;20034;-79
2023/03/27 06:04:07;;;;;;;10.70;2.10;;;11.00;80.20;;;;;;7399385;19;20014;-78
2023/03/27 06:06:37;;;;;;;9.63;2.08;;;11.00;80.10;;;;;;7390186;19;20398;-79
2023/03/27 06:09:09;;;;;;;7.28;1.67;;;10.90;80.10;;;;;;7411440;19;20043;-79
2023/03/27 06:11:38;;;;;;;10.82;2.22;;;10.90;80.80;;;;;;7391418;19;20014;-79
2023/03/27 06:14:06;;;;;;;12.00;1.85;;;10.90;80.90;;;;;;7389272;19;20027;-80
2023/03/27 06:16:39;;;;;;;14.65;1.90;;;10.90;81.00;;;;;;7387166;19;20003;-79
2023/03/27 06:19:08;;;;;;;8.02;1.60;;;11.00;80.80;;;;;;7388681;19;20382;-78
2023/03/27 06:21:36;;;;;;;10.02;1.50;;;11.00;80.70;;;;;;7386774;19;20524;-79
2023/03/27 06:24:09;;;;;;;10.73;1.70;;;10.90;80.80;;;;;;7409117;19;20022;-79
2023/03/27 06:26:38;;;;;;;13.57;1.95;;;10.60;81.40;;;;;;7388485;19;20007;-79
2023/03/27 06:29:09;;;;;;;5.93;1.88;;;10.60;82.20;;;;;;7389912;19;20003;-79
2023/03/27 06:31:39;;;;;;;8.98;2.28;;;10.70;81.80;;;;;;7393541;19;20007;-79
2023/03/27 06:34:09;;;;;;;4.78;1.58;;;10.60;82.20;;;;;;7393020;19;20010;-79
2023/03/27 06:36:39;;;;;;;11.32;2.10;;;10.70;81.90;;;;;;7389491;19;20112;-80
2023/03/27 06:39:11;;;;;;;8.68;1.65;;;10.70;81.80;;;;;;7406058;19;20003;-78
2023/03/27 06:41:39;;;;;;;;;;;10.50;82.30;;;;;;7385158;19;20007;-78
2023/03/27 06:44:08;;;;;;;7.90;1.70;;;10.40;82.50;;;;;;7386480;19;19915;-79
2023/03/27 06:46:37;;;;;;;7.95;1.80;;;10.40;82.90;;;;;;7386497;19;20014;-79
2023/03/27 06:49:06;;;;;;;9.27;2.20;;;10.40;83.10;;;;;;7387120;19;20011;-81
2023/03/27 06:51:37;;;;;;;17.10;1.90;;;10.50;82.90;;;;;;7383276;19;20007;-79
2023/03/27 06:54:06;;;;;;;18.55;2.03;;;10.40;83.40;;;;;;7405929;19;20003;-79
2023/03/27 06:56:37;;;;;;;10.95;2.00;;;10.30;83.50;;;;;;7386204;19;20345;-79
2023/03/27 06:59:06;;;;;;;;;;;10.30;83.70;;;;;;7385375;19;20030;-79
2023/03/27 07:01:42;;;;;;;5.90;2.08;;;10.60;83.40;;;;;;7385463;19;19903;-78
2023/03/27 07:04:12;;;;;;;11.00;1.90;;;10.80;83.00;;;;;;7385679;19;20006;-79
2023/03/27 07:06:47;;;;;;;10.60;2.45;;;11.00;83.00;;;;;;7385698;19;20011;-78
2023/03/27 07:09:18;;;;;;;85.43;5.60;;;11.10;83.60;;;;;;7402206;19;20062;-76
2023/03/27 07:11:51;;;;;;;83.07;4.22;;;11.10;83.00;;;;;;7381683;19;20034;-79
2023/03/27 07:14:20;;;;;;;14.40;2.95;;;11.20;83.40;;;;;;7379534;19;20038;-77
2023/03/27 07:16:54;;;;;;;19.55;2.83;;;11.20;84.60;;;;;;7382483;19;20408;-80
2023/03/27 07:19:23;;;;;;;19.50;2.20;;;11.30;83.30;;;;;;7382454;19;20002;-79
2023/03/27 07:21:54;;;;;;;54.33;2.97;;;11.30;85.10;;;;;;7384666;19;20003;-78
2023/03/27 07:24:23;;;;;;;274.98;11.48;;;11.10;86.60;;;;;;7382071;19;20047;-76
2023/03/27 07:26:55;;;;;;;6.50;2.10;;;11.30;84.30;;;;;;7401924;19;20014;-74
2023/03/27 07:29:23;;;;;;;13.07;1.98;;;11.10;84.60;;;;;;7379565;19;20003;-75
2023/03/27 07:31:52;;;;;;;13.63;1.92;;;11.30;83.40;;;;;;7380087;19;20011;-76
2023/03/27 07:34:22;;;;;;;5.65;1.60;;;11.40;83.60;;;;;;7380030;19;20006;-77
2023/03/27 07:36:50;;;;;;;13.55;2.10;;;11.30;82.80;;;;;;7379864;19;20010;-76
2023/03/27 07:39:22;;;;;;;8.57;1.90;;;11.10;85.40;;;;;;7378940;19;20006;-76
2023/03/27 07:41:50;;;;;;;8.00;1.70;;;11.20;83.30;;;;;;7401766;19;20007;-73
2023/03/27 07:44:25;;;;;;;14.25;1.92;;;11.30;82.40;;;;;;7381813;19;20010;-78
2023/03/27 07:46:55;;;;;;;10.70;1.83;;;11.40;82.10;;;;;;7381518;19;20274;-78
2023/03/27 07:49:23;;;;;;;9.27;1.90;;;11.50;81.80;;;;;;7381591;19;20476;-79
2023/03/27 07:51:52;;;;;;;13.52;1.85;;;11.60;81.30;;;;;;7380504;19;20009;-79
2023/03/27 07:54:21;;;;;;;18.63;2.20;;;11.70;80.50;;;;;;7378904;19;20026;-78
2023/03/27 07:56:53;;;;;;;5.93;1.67;;;11.80;79.90;;;;;;7404258;19;20030;-78
2023/03/27 07:59:24;;;;;;;5.70;1.98;;;11.80;79.30;;;;;;7381152;19;20238;-78
2023/03/27 08:01:53;;;;;;;14.25;2.17;;;11.90;77.90;;;;;;7381796;19;20030;-78
2023/03/27 08:04:24;;;;;;;7.78;2.03;;;11.80;77.30;;;;;;7379202;19;20002;-77
2023/03/27 08:07:00;;;;;;;6.68;1.45;;;11.80;77.50;;;;;;7380226;19;20425;-78
2023/03/27 08:09:28;;;;;;;4.88;1.52;;;11.40;75.90;;;;;;7380648;19;20021;-78
2023/03/27 08:11:57;;;;;;;6.03;1.15;;;11.50;74.80;;;;;;7401955;19;20018;-76
2023/03/27 08:14:29;;;;;;;6.65;1.27;;;11.50;70.20;;;;;;7378921;19;20019;-76
2023/03/27 08:16:57;;;;;;;4.80;1.27;;;11.50;70.80;;;;;;7380396;19;20009;-72
2023/03/27 08:19:27;;;;;;;5.22;1.38;;;11.40;71.90;;;;;;7378110;19;20016;-77
2023/03/27 08:21:56;;;;;;;3.30;1.25;;;11.50;70.60;;;;;;7379748;19;20031;-77
2023/03/27 08:24:25;;;;;;;4.13;0.98;;;11.60;70.20;;;;;;7403211;19;19998;-73
2023/03/27 08:26:54;;;;;;;3.95;0.80;;;11.60;68.10;;;;;;7362842;19;20038;-71
2023/03/27 08:29:22;;;;;;;10.48;1.30;;;11.70;68.20;;;;;;7401353;19;20104;-69
2023/03/27 08:31:54;;;;;;;4.53;1.00;;;11.20;65.20;;;;;;7382865;19;20381;-71
2023/03/27 08:34:22;;;;;;;3.03;0.75;;;10.90;64.10;;;;;;7385134;19;20015;-73
2023/03/27 08:36:51;;;;;;;4.75;0.90;;;11.10;64.90;;;;;;7386857;19;19999;-71
2023/03/27 08:39:21;;;;;;;2.28;0.98;;;11.30;65.20;;;;;;7387508;19;20019;-71
2023/03/27 08:41:53;;;;;;;2.60;0.80;;;11.20;62.00;;;;;;7384360;19;20693;-71
2023/03/27 08:44:24;;;;;;;6.30;0.65;;;11.30;62.40;;;;;;7406298;19;20010;-71
2023/03/27 08:47:00;;;;;;;6.55;1.52;;;11.10;61.50;;;;;;7386962;19;20013;-71
2023/03/27 08:49:33;;;;;;;4.82;1.10;;;11.30;62.50;;;;;;7386604;19;20006;-73
2023/03/27 08:52:05;;;;;;;3.55;0.77;;;11.20;63.60;;;;;;7390530;19;20020;-72
2023/03/27 08:54:39;;;;;;;4.60;0.98;;;10.90;63.60;;;;;;7387262;19;20277;-71
2023/03/27 08:57:19;;;;;;;2.75;0.93;;;11.00;63.90;;;;;;7387561;19;20084;-73
2023/03/27 08:59:48;;;;;;;3.72;1.10;;;11.10;64.20;;;;;;7385681;19;20095;-71
2023/03/27 09:02:31;;;;;;;4.85;1.33;;;11.30;65.20;;;;;;7409211;19;20007;-72
2023/03/27 09:05:05;;;;;;;3.83;0.98;;;11.30;66.30;;;;;;7386932;19;19999;-70
2023/03/27 09:07:39;;;;;;;6.72;1.20;;;11.30;65.90;;;;;;7385798;19;20383;-73
2023/03/27 09:10:16;;;;;;;4.32;1.15;;;11.00;66.60;;;;;;7387126;19;20007;-72
2023/03/27 09:12:58;;;;;;;5.13;1.10;;;11.30;65.30;;;;;;7385194;19;20007;-70
2023/03/27 09:15:29;;;;;;;5.72;1.15;;;11.30;65.60;;;;;;7384967;19;20057;-73
2023/03/27 09:18:07;;;;;;;3.60;1.30;;;11.30;65.60;;;;;;7387345;19;20013;-74
2023/03/27 09:20:40;;;;;;;2.75;1.02;;;11.20;66.20;;;;;;7406835;19;20014;-74
2023/03/27 09:23:17;;;;;;;5.90;1.55;;;11.30;65.20;;;;;;7388205;19;20063;-74
2023/03/27 09:25:49;;;;;;;4.47;1.00;;;11.40;64.90;;;;;;7388704;19;20357;-74
2023/03/27 09:28:22;;;;;;;3.40;0.63;;;11.70;65.00;;;;;;7389618;19;20003;-74
2023/03/27 09:30:51;;;;;;;3.97;1.00;;;12.00;62.00;;;;;;7389286;19;20215;-73
2023/03/27 09:33:23;;;;;;;5.35;0.60;;;11.90;59.00;;;;;;7386954;19;20002;-70
2023/03/27 09:35:52;;;;;;;6.40;1.10;;;11.70;60.40;;;;;;7383511;19;20024;-70
2023/03/27 09:38:30;;;;;;;3.15;0.90;;;11.50;59.50;;;;;;7407338;19;20006;-70
2023/03/27 09:41:02;;;;;;;5.40;1.23;;;11.40;63.70;;;;;;7385074;19;20385;-70
2023/03/27 09:43:40;;;;;;;5.65;1.15;;;11.40;66.20;;;;;;7383542;19;20011;-70
2023/03/27 09:46:16;;;;;;;5.78;1.73;;;11.50;66.80;;;;;;7386004;19;20003;-71
2023/03/27 09:48:54;;;;;;;7.20;1.45;;;11.30;69.00;;;;;;7385989;19;20012;-70
2023/03/27 09:51:39;;;;;;;2.63;1.10;;;11.20;69.70;;;;;;7386360;19;20294;-69
2023/03/27 09:54:08;;;;;;;3.17;1.30;;;10.90;71.50;;;;;;7386111;19;20016;-69
2023/03/27 09:56:42;;;;;;;8.50;1.40;;;10.60;72.90;;;;;;7406354;19;20034;-69
2023/03/27 09:59:20;;;;;;;7.43;1.27;;;10.80;72.20;;;;;;7384386;19;20003;-70
2023/03/27 10:01:50;;;;;;;4.13;0.90;;;11.10;73.60;;;;;;7384765;19;20365;-70
2023/03/27 10:04:23;;;;;;;3.72;0.88;;;11.00;67.60;;;;;;7385225;19;20006;-69
2023/03/27 10:07:00;;;;;;;8.18;1.30;;;11.10;67.50;;;;;;7383730;19;20018;-70
2023/03/27 10:09:33;;;;;;;4.72;1.00;;;11.50;67.20;;;;;;7384905;19;20425;-70
2023/03/27 10:12:05;;;;;;;3.72;1.42;;;11.30;66.00;;;;;;7384981;19;20027;-70
2023/03/27 10:14:36;;;;;;;3.90;1.02;;;11.60;66.30;;;;;;7405500;19;20243;-72
2023/03/27 10:17:06;;;;;;;5.82;1.85;;;11.80;64.70;;;;;;7384343;19;20019;-71
2023/03/27 10:19:40;;;;;;;5.70;1.25;;;12.00;63.90;;;;;;7383275;19;20230;-71
2023/03/27 10:22:20;;;;;;;1.65;1.05;;;12.10;63.10;;;;;;7383898;19;20006;-71
2023/03/27 10:24:50;;;;;;;7.60;1.20;;;12.00;63.30;;;;;;7383476;19;20247;-72
2023/03/27 10:27:22;;;;;;;6.30;1.30;;;12.10;63.50;;;;;;7383199;19;20019;-69
2023/03/27 10:29:51;;;;;;;4.70;0.95;;;12.20;62.80;;;;;;7383209;19;20410;-69
2023/03/27 10:32:19;;;;;;;5.13;1.27;;;12.00;62.40;;;;;;7405646;19;20010;-71
2023/03/27 10:34:59;;;;;;;6.53;1.30;;;12.10;64.80;;;;;;7384944;19;20345;-71
2023/03/27 10:37:30;;;;;;;5.95;1.40;;;12.10;63.80;;;;;;7385506;19;20019;-72
2023/03/27 10:40:01;;;;;;;;;;;12.10;61.50;;;;;;7386426;19;20010;-69
2023/03/27 10:42:32;;;;;;;9.80;1.00;;;12.00;61.90;;;;;;7386236;19;19915;-69
2023/03/27 10:45:02;;;;;;;5.25;1.33;;;12.20;61.70;;;;;;7384413;19;20055;-71
2023/03/27 10:47:34;;;;;;;1.45;0.82;;;12.50;61.50;;;;;;7405364;19;20016;-71
2023/03/27 10:50:14;;;;;;;3.63;0.85;;;12.30;59.70;;;;;;7384799;19;20007;-71
2023/03/27 10:52:57;;;;;;;2.85;0.98;;;12.20;58.20;;;;;;7384253;19;20010;-71
2023/03/27 10:55:40;;;;;;;2.03;1.00;;;12.20;57.60;;;;;;7382829;19;20003;-73
2023/03/27 10:58:23;;;;;;;4.80;0.95;;;12.20;58.20;;;;;;7385452;19;20035;-73
2023/03/27 11:00:59;;;;;;;1.48;0.60;;;11.90;57.30;;;;;;7384481;19;20007;-71
2023/03/27 11:03:34;;;;;;;5.05;1.10;;;12.10;58.00;;;;;;7383600;19;20003;-72
2023/03/27 11:06:10;;;;;;;6.15;1.02;;;11.90;57.90;;;;;;7383333;19;20006;-71
2023/03/27 11:08:52;;;;;;;2.80;1.20;;;12.20;58.30;;;;;;7404883;19;20034;-72
2023/03/27 11:11:27;;;;;;;4.13;1.02;;;12.10;58.40;;;;;;7382736;19;20006;-72
2023/03/27 11:14:01;;;;;;;4.05;0.88;;;12.40;59.30;;;;;;7382483;19;20020;-70
2023/03/27 11:16:34;;;;;;;4.10;1.20;;;12.40;59.70;;;;;;7381699;19;20006;-70
2023/03/27 11:19:26;;;;;;;3.10;1.25;;;12.20;59.90;;;;;;7382044;19;20438;-70
2023/03/27 11:22:05;;;;;;;4.03;1.40;;;12.20;60.50;;;;;;7381942;19;20019;-70
2023/03/27 11:24:39;;;;;;;4.53;0.98;;;12.40;61.10;;;;;;7381499;19;20248;-70
2023/03/27 11:27:15;;;;;;;8.77;1.30;;;12.60;60.10;;;;;;7380934;19;20007;-71
2023/03/27 11:29:50;;;;;;;3.97;1.17;;;12.80;59.70;;;;;;7399206;19;20011;-71
2023/03/27 11:32:31;;;;;;;7.63;1.52;;;13.00;59.80;;;;;;7403067;19;20011;-70
2023/03/27 11:35:04;;;;;;;6.97;1.25;;;13.20;59.40;;;;;;7380110;19;20009;-70
2023/03/27 11:37:42;;;;;;;3.60;0.80;;;13.40;59.40;;;;;;7381744;19;20003;-70
2023/03/27 11:40:18;;;;;;;3.30;1.30;;;13.10;58.00;;;;;;7381339;19;20414;-70
2023/03/27 11:42:48;;;;;;;3.78;1.00;;;13.10;57.50;;;;;;7380277;19;20012;-70
2023/03/27 11:45:19;;;;;;;3.63;1.05;;;13.20;58.40;;;;;;7381692;19;20006;-71
2023/03/27 11:48:13;;;;;;;6.35;1.45;;;13.30;58.60;;;;;;7379377;19;20045;-71
2023/03/27 11:50:50;;;;;;;4.80;0.90;;;13.30;58.60;;;;;;7402799;19;20066;-71
2023/03/27 11:53:52;;;;;;;2.33;1.02;;;13.00;57.90;;;;;;7381760;19;20006;-71
2023/03/27 11:56:33;;;;;;;3.78;1.05;;;12.90;57.60;;;;;;7378755;19;20011;-71
2023/03/27 11:59:23;;;;;;;11.07;1.27;;;12.60;58.40;;;;;;7379268;19;20263;-71
2023/03/27 12:02:04;;;;;;;5.25;0.75;;;12.60;58.10;;;;;;7379814;19;20024;-71
2023/03/27 12:04:42;;;;;;;6.45;1.00;;;12.50;58.80;;;;;;7379867;19;20003;-71
2023/03/27 12:07:22;;;;;;;4.10;0.98;;;12.70;59.20;;;;;;7387249;19;19999;-71
2023/03/27 12:10:05;;;;;;;5.97;0.98;;;12.70;57.80;;;;;;7388506;19;20366;-71
2023/03/27 12:12:56;;;;;;;2.85;0.95;;;12.80;57.10;;;;;;7388188;19;20255;-72
2023/03/27 12:15:42;;;;;;;1.67;1.10;;;12.90;57.50;;;;;;7385466;19;20011;-72
2023/03/27 12:18:23;;;;;;;6.72;1.00;;;12.90;57.50;;;;;;7389321;19;20007;-74
2023/03/27 12:21:17;;;;;;;4.72;0.98;;;13.00;59.20;;;;;;7388885;19;20010;-72
2023/03/27 12:24:09;;;;;;;2.63;0.90;;;13.00;57.90;;;;;;7388220;19;20031;-73
2023/03/27 12:26:53;;;;;;;1.30;0.88;;;12.90;57.60;;;;;;7409959;19;20023;-71
2023/03/27 12:29:43;;;;;;;3.60;1.00;;;13.00;57.20;;;;;;7387562;19;20006;-71
2023/03/27 12:32:28;;;;;;;3.20;0.93;;;12.70;57.60;;;;;;7387419;19;20015;-73
2023/03/27 12:35:02;;;;;;;3.65;1.23;;;13.10;58.60;;;;;;7388230;19;20007;-71
2023/03/27 12:37:37;;;;;;;3.58;0.80;;;13.00;58.70;;;;;;7388563;19;20066;-70
2023/03/27 12:40:23;;;;;;;4.80;1.30;;;12.90;58.20;;;;;;7386883;19;20409;-71
2023/03/27 12:42:56;;;;;;;4.82;1.17;;;13.10;59.30;;;;;;7385706;19;20010;-71
2023/03/27 12:45:27;;;;;;;28.67;1.65;;;13.30;59.40;;;;;;7387456;19;20011;-71
2023/03/27 12:48:20;;;;;;;6.78;1.25;;;13.40;57.70;;;;;;7385512;19;20238;-71
2023/03/27 12:50:57;;;;;;;6.72;1.20;;;13.50;57.90;;;;;;7388699;19;20023;-71
2023/03/27 12:53:58;;;;;;;5.38;1.30;;;13.10;57.10;;;;;;7410510;19;20123;-72
2023/03/27 12:56:35;;;;;;;5.28;1.10;;;13.30;58.80;;;;;;7386088;19;20007;-73
2023/03/27 12:59:21;;;;;;;2.17;0.90;;;13.50;59.50;;;;;;7385990;19;20010;-72
2023/03/27 13:02:15;;;;;;;2.78;0.98;;;13.50;57.70;;;;;;7386039;19;20002;-71
2023/03/27 13:05:17;;;;;;;4.65;1.15;;;13.50;57.70;;;;;;7387801;19;20381;-71
2023/03/27 13:07:53;;;;;;;3.63;1.10;;;13.40;57.60;;;;;;7387894;19;20006;-72
2023/03/27 13:10:45;;;;;;;4.32;0.98;;;13.20;56.80;;;;;;7387715;19;20002;-72
2023/03/27 13:13:40;;;;;;;2.35;1.08;;;13.10;57.90;;;;;;7386633;19;20007;-73
2023/03/27 13:16:31;;;;;;;3.55;1.15;;;12.90;57.50;;;;;;7387010;19;20020;-72
2023/03/27 13:19:17;;;;;;;4.15;1.42;;;13.20;58.60;;;;;;7387717;19;20013;-74
2023/03/27 13:22:00;;;;;;;3.58;0.90;;;13.40;58.50;;;;;;7387829;19;20002;-72